createdAt,value
2019-02-09T00:01:24.064Z,99871.20
2019-02-09T00:03:57.726Z,99873.92
2019-02-09T00:06:33.303Z,99860.33
2019-02-09T00:09:10.344Z,99861.38
2019-02-09T00:11:43.705Z,99851.20
2019-02-09T00:14:17.789Z,99842.80
2019-02-09T00:17:09.851Z,99846.52
2019-02-09T00:19:55.392Z,99843.55
2019-02-09T00:22:41.138Z,99841.86
2019-02-09T00:35:54.591Z,99819.52
2019-02-09T00:38:27.026Z,99814.73
2019-02-09T00:41:00.762Z,99825.17
2019-02-09T00:43:33.753Z,99819.77
2019-02-09T00:46:06.610Z,99814.92
2019-02-09T00:48:39.513Z,99815.91
2019-02-09T00:51:25.249Z,99818.87
2019-02-09T00:54:10.906Z,99814.00
2019-02-09T00:56:57.274Z,99808.30
2019-02-09T00:59:31.203Z,99803.20
2019-02-09T01:02:05.025Z,99799.19
2019-02-09T01:04:53.633Z,99798.14
2019-02-09T01:07:27.672Z,99804.95
2019-02-09T01:10:18.789Z,99793.78
2019-02-09T01:13:12.893Z,99777.98
2019-02-09T01:15:46.972Z,99773.33
2019-02-09T01:18:37.919Z,99776.30
2019-02-09T01:21:11.804Z,99767.63
2019-02-09T01:24:07.376Z,99770.89
2019-02-09T01:26:39.973Z,99775.88
2019-02-09T01:29:14.124Z,99781.76
2019-02-09T01:31:47.777Z,99772.41
2019-02-09T01:34:39.231Z,99761.00
2019-02-09T01:37:11.972Z,99761.12
2019-02-09T01:39:45.937Z,99758.52
2019-02-09T01:42:19.686Z,99760.89
2019-02-09T01:44:53.168Z,99764.39
2019-02-09T01:47:27.404Z,99755.48
2019-02-09T01:50:02.146Z,99753.47
2019-02-09T01:53:26.941Z,99745.33
2019-02-09T01:56:00.963Z,99738.83
2019-02-09T01:58:34.628Z,99738.00
2019-02-09T02:01:08.463Z,99732.72
2019-02-09T02:03:42.540Z,99735.86
2019-02-09T02:06:35.132Z,99728.77
2019-02-09T02:09:09.636Z,99726.27
2019-02-09T02:12:01.398Z,99708.72
2019-02-09T02:14:35.231Z,99711.28
2019-02-09T02:17:09.820Z,99710.72
2019-02-09T02:20:01.539Z,99703.37
2019-02-09T02:22:54.293Z,99697.92
2019-02-09T02:25:45.317Z,99696.37
2019-02-09T02:28:31.249Z,99691.54
2019-02-09T02:31:05.036Z,99686.97
2019-02-09T02:33:41.318Z,99680.18
2019-02-09T02:36:14.134Z,99673.20
2019-02-09T02:38:48.199Z,99653.84
2019-02-09T02:52:05.406Z,99628.75
2019-02-09T03:10:45.268Z,99645.93
2019-02-09T03:13:19.296Z,99649.67
2019-02-09T03:16:09.763Z,99632.46
2019-02-09T03:18:43.270Z,99638.50
2019-02-09T03:21:17.324Z,99639.84
2019-02-09T03:24:07.117Z,99630.41
2019-02-09T03:26:43.207Z,99625.48
2019-02-09T03:29:17.002Z,99611.89
2019-02-09T03:31:50.754Z,99603.58
2019-02-09T03:34:24.844Z,99589.92
2019-02-09T03:37:17.668Z,99602.05
2019-02-09T03:39:51.840Z,99604.06
2019-02-09T03:42:26.206Z,99604.52
2019-02-09T03:55:40.664Z,99595.47
2019-02-09T03:58:14.220Z,99585.55
2019-02-09T04:11:47.494Z,99593.04
2019-02-09T04:14:33.577Z,99579.67
2019-02-09T04:17:06.328Z,99583.88
2019-02-09T04:19:40.410Z,99588.47
2019-02-09T04:22:36.057Z,99573.86
2019-02-09T04:25:27.610Z,99586.41
2019-02-09T04:28:01.419Z,99586.11
2019-02-09T04:30:35.523Z,99585.84
2019-02-09T04:33:35.517Z,99580.02
2019-02-09T04:36:09.369Z,99583.97
2019-02-09T04:38:43.875Z,99581.30
2019-02-09T04:41:18.435Z,99581.89
2019-02-09T04:43:52.235Z,99589.41
2019-02-09T04:46:44.503Z,99580.44
2019-02-09T04:49:18.789Z,99579.02
2019-02-09T04:51:52.633Z,99577.14
2019-02-09T04:54:26.590Z,99580.69
2019-02-09T04:57:50.734Z,99579.46
2019-02-09T05:00:42.876Z,99580.75
2019-02-09T05:03:36.932Z,99572.91
2019-02-09T05:06:10.560Z,99584.90
2019-02-09T05:08:44.047Z,99587.91
2019-02-09T05:11:17.883Z,99594.30
2019-02-09T05:13:51.997Z,99579.59
2019-02-09T05:16:25.747Z,99581.81
2019-02-09T05:19:00.315Z,99577.80
2019-02-09T05:21:34.752Z,99576.46
2019-02-09T05:24:20.982Z,99578.09
2019-02-09T05:27:12.490Z,99577.59
2019-02-09T05:29:58.612Z,99582.98
2019-02-09T05:32:32.098Z,99586.66
2019-02-09T05:35:04.996Z,99586.66
2019-02-09T05:37:51.602Z,99589.14
2019-02-09T05:40:25.435Z,99597.07
2019-02-09T05:42:58.899Z,99601.03
2019-02-09T05:45:31.647Z,99593.26
2019-02-09T05:48:23.156Z,99592.02
2019-02-09T05:51:08.824Z,99592.59
2019-02-09T05:53:42.619Z,99597.56
2019-02-09T05:56:33.839Z,99592.59
2019-02-09T05:59:19.398Z,99589.63
2019-02-09T06:02:11.176Z,99590.77
2019-02-09T06:04:57.475Z,99595.27
2019-02-09T06:07:31.841Z,99596.77
2019-02-09T06:10:08.568Z,99590.34
2019-02-09T06:12:43.773Z,99591.17
2019-02-09T06:15:18.407Z,99598.90
2019-02-09T06:18:04.834Z,99594.39
2019-02-09T06:20:37.555Z,99597.77
2019-02-09T06:23:11.333Z,99602.11
2019-02-09T06:25:45.479Z,99606.34
2019-02-09T06:28:39.939Z,99607.02
2019-02-09T06:31:25.863Z,99601.08
2019-02-09T06:34:11.571Z,99599.61
2019-02-09T06:36:57.055Z,99608.37
2019-02-09T06:39:45.829Z,99605.64
2019-02-09T06:42:39.124Z,99606.35
2019-02-09T06:45:15.946Z,99618.02
2019-02-09T06:47:49.918Z,99630.56
2019-02-09T06:50:26.357Z,99621.01
2019-02-09T06:53:00.834Z,99627.69
2019-02-09T06:55:51.545Z,99628.63
2019-02-09T06:58:25.026Z,99632.98
2019-02-09T07:00:58.901Z,99629.56
2019-02-09T07:03:32.738Z,99637.88
2019-02-09T07:06:06.623Z,99648.09
2019-02-09T07:08:40.415Z,99641.45
2019-02-09T07:11:13.138Z,99652.69
2019-02-09T07:13:47.428Z,99647.05
2019-02-09T07:16:21.815Z,99658.78
2019-02-09T07:18:55.604Z,99653.39
2019-02-09T07:21:29.989Z,99648.87
2019-02-09T07:24:03.691Z,99645.31
2019-02-09T07:26:55.552Z,99656.80
2019-02-09T07:29:46.173Z,99661.84
2019-02-09T07:32:37.269Z,99672.05
2019-02-09T07:35:12.295Z,99667.25
2019-02-09T07:38:00.993Z,99673.78
2019-02-09T07:40:34.976Z,99678.23
2019-02-09T07:43:08.807Z,99679.78
2019-02-09T07:45:43.430Z,99683.30
2019-02-09T07:48:17.924Z,99689.92
2019-02-09T07:50:52.046Z,99692.11
2019-02-09T07:53:50.310Z,99684.62
2019-02-09T07:56:24.554Z,99691.51
2019-02-09T07:58:58.507Z,99689.88
2019-02-09T08:01:32.247Z,99689.09
2019-02-09T08:04:06.158Z,99690.48
2019-02-09T08:06:41.407Z,99689.44
2019-02-09T08:09:15.344Z,99692.22
2019-02-09T08:12:01.466Z,99703.91
2019-02-09T08:14:34.461Z,99703.86
2019-02-09T08:17:08.623Z,99710.74
2019-02-09T08:19:42.534Z,99709.38
2019-02-09T08:22:16.695Z,99703.09
2019-02-09T08:25:02.475Z,99709.21
2019-02-09T08:27:34.506Z,99699.02
2019-02-09T08:30:29.227Z,99701.11
2019-02-09T08:33:03.393Z,99705.88
2019-02-09T08:35:49.039Z,99710.61
2019-02-09T08:38:34.930Z,99706.80
2019-02-09T08:41:29.139Z,99712.70
2019-02-09T08:44:19.685Z,99707.94
2019-02-09T08:46:52.853Z,99713.58
2019-02-09T08:49:27.746Z,99715.70
2019-02-09T08:52:01.771Z,99728.80
2019-02-09T08:54:35.667Z,99702.36
2019-02-09T08:57:12.085Z,99725.83
2019-02-09T08:59:45.490Z,99713.11
2019-02-09T09:02:20.841Z,99716.64
2019-02-09T09:04:54.454Z,99718.52
2019-02-09T09:07:28.689Z,99715.42
2019-02-09T09:10:02.979Z,99732.20
2019-02-09T09:12:36.890Z,99726.44
2019-02-09T09:15:15.086Z,99728.91
2019-02-09T09:17:48.731Z,99734.89
2019-02-09T09:20:25.509Z,99729.08
2019-02-09T09:22:59.291Z,99730.78
2019-02-09T09:25:33.228Z,99739.33
2019-02-09T09:28:07.461Z,99729.44
2019-02-09T09:30:58.788Z,99737.75
2019-02-09T09:33:32.874Z,99744.95
2019-02-09T09:47:05.458Z,99759.48
2019-02-09T09:49:57.262Z,99757.06
2019-02-09T09:52:29.415Z,99760.38
2019-02-09T09:55:02.854Z,99750.67
2019-02-09T09:57:48.054Z,99766.90
2019-02-09T10:00:21.906Z,99765.02
2019-02-09T10:02:54.220Z,99773.42
2019-02-09T10:05:28.381Z,99773.39
2019-02-09T10:08:02.674Z,99776.61
2019-02-09T10:10:36.580Z,99784.36
2019-02-09T10:13:10.102Z,99793.73
2019-02-09T10:15:44.506Z,99780.13
2019-02-09T10:18:18.848Z,99795.31
2019-02-09T10:20:52.702Z,99801.16
2019-02-09T10:23:26.765Z,99790.20
2019-02-09T10:26:00.580Z,99791.59
2019-02-09T10:28:46.075Z,99783.62
2019-02-09T10:31:35.496Z,99793.80
2019-02-09T10:34:09.240Z,99805.25
2019-02-09T10:36:41.929Z,99798.29
2019-02-09T10:39:15.351Z,99796.45
2019-02-09T10:41:49.398Z,99801.31
2019-02-09T10:44:24.532Z,99795.34
2019-02-09T10:46:58.631Z,99793.13
2019-02-09T10:49:36.315Z,99793.34
2019-02-09T10:52:09.582Z,99784.61
2019-02-09T10:54:44.392Z,99789.72
2019-02-09T10:57:21.700Z,99794.83
2019-02-09T11:10:37.540Z,99774.36
2019-02-09T11:24:01.114Z,99780.70
2019-02-09T11:26:54.589Z,99778.69
2019-02-09T11:29:29.026Z,99790.82
2019-02-09T11:32:02.539Z,99799.48
2019-02-09T11:34:36.316Z,99794.41
2019-02-09T11:37:10.001Z,99785.23
2019-02-09T11:39:44.236Z,99780.16
2019-02-09T11:42:17.762Z,99786.60
2019-02-09T11:45:17.125Z,99783.62
2019-02-09T11:47:50.872Z,99781.39
2019-02-09T11:50:25.668Z,99783.71
2019-02-09T11:52:58.169Z,99781.78
2019-02-09T11:55:50.419Z,99788.63
2019-02-09T11:58:24.278Z,99783.88
2019-02-09T12:01:11.220Z,99791.66
2019-02-09T12:03:45.879Z,99788.69
2019-02-09T12:06:18.975Z,99779.90
2019-02-09T12:09:40.168Z,99774.31
2019-02-09T12:12:12.439Z,99776.96
2019-02-09T12:14:46.599Z,99780.92
2019-02-09T12:17:21.144Z,99795.94
2019-02-09T12:19:53.702Z,99782.88
2019-02-09T12:22:27.461Z,99781.59
2019-02-09T12:25:01.469Z,99793.16
2019-02-09T12:27:55.246Z,99787.76
2019-02-09T12:30:47.643Z,99797.28
2019-02-09T12:33:44.945Z,99793.25
2019-02-09T12:36:21.787Z,99784.41
2019-02-09T12:38:54.572Z,99794.02
2019-02-09T12:41:46.146Z,99797.77
2019-02-09T12:44:19.505Z,99787.37
2019-02-09T12:47:08.632Z,99795.70
2019-02-09T12:49:41.421Z,99786.83
2019-02-09T12:52:30.196Z,99786.75
2019-02-09T12:55:04.308Z,99793.49
2019-02-09T12:57:39.619Z,99787.86
2019-02-09T13:00:21.352Z,99768.75
2019-02-09T13:02:54.872Z,99780.77
2019-02-09T13:05:28.483Z,99779.00
2019-02-09T13:08:00.874Z,99789.05
2019-02-09T13:21:11.657Z,99776.06
2019-02-09T13:23:44.328Z,99785.00
2019-02-09T13:26:19.351Z,99807.66
2019-02-09T13:29:01.357Z,99813.94
2019-02-09T13:31:37.245Z,99787.91
2019-02-09T13:34:10.406Z,99813.55
2019-02-09T13:37:03.113Z,99827.55
2019-02-09T13:39:36.516Z,99825.67
2019-02-09T13:42:10.425Z,99835.47
2019-02-09T13:44:44.562Z,99858.33
2019-02-09T13:47:29.052Z,99845.70
2019-02-09T13:50:06.321Z,99839.07
2019-02-09T13:52:52.909Z,99839.48
2019-02-09T13:55:36.051Z,99848.59
2019-02-09T13:58:24.296Z,99827.14
2019-02-09T14:01:14.232Z,99810.72
2019-02-09T14:03:54.129Z,99819.79
2019-02-09T14:06:30.389Z,99824.09
2019-02-09T14:09:06.180Z,99831.02
2019-02-09T14:11:41.399Z,99834.91
2019-02-09T14:14:16.003Z,99829.66
2019-02-09T14:16:48.770Z,99833.39
2019-02-09T14:19:24.214Z,99815.94
2019-02-09T14:21:58.515Z,99809.87
2019-02-09T14:24:50.698Z,99820.74
2019-02-09T14:27:25.315Z,99825.14
2019-02-09T14:29:59.416Z,99813.03
2019-02-09T14:32:50.402Z,99801.52
2019-02-09T14:35:27.316Z,99821.20
2019-02-09T14:38:03.785Z,99803.42
2019-02-09T14:40:37.731Z,99800.15
2019-02-09T14:43:11.817Z,99798.00
2019-02-09T14:45:45.546Z,99800.18
2019-02-09T14:48:20.071Z,99794.55
2019-02-09T14:50:53.833Z,99810.60
2019-02-09T14:53:27.756Z,99811.98
2019-02-09T14:56:01.539Z,99807.70
2019-02-09T14:58:37.272Z,99809.23
2019-02-09T15:01:09.172Z,99813.06
2019-02-09T15:04:06.533Z,99826.66
2019-02-09T15:07:01.231Z,99826.33
2019-02-09T15:09:35.470Z,99837.47
2019-02-09T15:12:10.303Z,99843.77
2019-02-09T16:46:54.375Z,100040.13
2019-02-09T16:49:29.759Z,100051.05
2019-02-09T16:52:03.573Z,100040.44
2019-02-09T16:54:43.219Z,100038.19
2019-02-09T17:09:18.261Z,100055.58
2019-02-09T17:11:54.733Z,100060.61
2019-02-09T17:14:32.926Z,100071.14
2019-02-09T17:17:11.900Z,100065.27
2019-02-09T17:19:46.708Z,100059.50
2019-02-09T17:22:20.659Z,100063.34
2019-02-09T17:24:54.837Z,100075.45
2019-02-09T17:27:28.128Z,100077.08
2019-02-09T17:30:07.265Z,100074.03
2019-02-09T17:32:40.670Z,100077.08
2019-02-09T17:35:17.247Z,100091.02
2019-02-09T17:37:52.637Z,100100.97
2019-02-09T17:40:27.387Z,100102.08
2019-02-09T17:42:59.812Z,100109.48
2019-02-09T17:46:13.988Z,100108.07
2019-02-09T17:49:06.089Z,100110.74
2019-02-09T17:51:38.778Z,100114.17
2019-02-09T17:54:11.517Z,100122.27
2019-02-09T17:56:44.080Z,100124.78
2019-02-09T17:59:18.312Z,100127.53
2019-02-09T18:01:50.545Z,100121.38
2019-02-09T18:04:22.340Z,100126.03
2019-02-09T18:07:12.509Z,100133.47
2019-02-09T18:10:14.340Z,100134.27
2019-02-09T18:12:47.865Z,100140.88
2019-02-09T18:15:35.237Z,100150.91
2019-02-09T18:18:11.095Z,100139.92
2019-02-09T18:20:46.777Z,100146.67
2019-02-09T18:23:19.725Z,100138.80
2019-02-09T18:25:54.006Z,100139.30
2019-02-09T18:28:29.834Z,100143.69
2019-02-09T18:31:01.804Z,100140.28
2019-02-09T18:33:36.732Z,100143.83
2019-02-09T18:36:10.416Z,100152.75
2019-02-09T18:38:46.275Z,100155.42
2019-02-09T18:41:22.211Z,100160.48
2019-02-09T18:43:55.717Z,100160.24
2019-02-09T18:46:28.731Z,100159.14
2019-02-09T18:49:02.355Z,100163.95
2019-02-09T18:51:36.083Z,100171.01
2019-02-09T18:54:09.580Z,100160.76
2019-02-09T18:56:44.222Z,100171.87
2019-02-09T18:59:16.968Z,100175.08
2019-02-09T19:01:49.904Z,100177.22
2019-02-09T19:04:23.480Z,100175.87
2019-02-09T19:06:56.183Z,100167.86
2019-02-09T19:09:30.999Z,100180.80
2019-02-09T19:12:03.574Z,100176.86
2019-02-09T19:14:36.921Z,100179.37
2019-02-09T19:17:14.466Z,100178.63
2019-02-09T19:19:48.961Z,100187.91
2019-02-09T19:22:23.039Z,100186.03
2019-02-09T19:24:56.674Z,100191.45
2019-02-09T19:28:48.712Z,100190.98
2019-02-09T19:31:23.908Z,100197.23
2019-02-09T19:34:00.505Z,100191.42
2019-02-09T19:36:33.332Z,100200.19
2019-02-09T19:39:10.990Z,100203.83
2019-02-09T19:41:45.930Z,100201.23
2019-02-09T19:44:18.120Z,100202.50
2019-02-09T19:46:51.374Z,100210.45
2019-02-09T19:49:24.925Z,100210.69
2019-02-09T19:52:00.593Z,100209.12
2019-02-09T19:54:34.320Z,100212.39
2019-02-09T19:57:08.950Z,100208.81
2019-02-09T19:59:42.192Z,100214.61
2019-02-09T20:02:14.967Z,100217.85
2019-02-09T20:04:49.720Z,100221.06
2019-02-09T20:07:22.898Z,100227.22
2019-02-09T20:09:57.385Z,100228.05
2019-02-09T20:12:30.756Z,100233.11
2019-02-09T20:15:06.487Z,100229.02
2019-02-09T20:17:41.061Z,100230.59
2019-02-09T20:20:17.731Z,100234.38
2019-02-09T20:22:49.853Z,100235.14
2019-02-09T20:25:23.645Z,100231.56
2019-02-09T20:27:56.022Z,100226.81
2019-02-09T20:30:33.567Z,100237.05
2019-02-09T20:56:22.816Z,100246.20
2019-02-09T20:59:02.843Z,100246.33
2019-02-09T21:01:36.800Z,100248.41
2019-02-09T21:04:39.328Z,100242.75
2019-02-09T21:07:12.609Z,100249.44
2019-02-09T21:09:51.864Z,100247.41
2019-02-09T21:12:25.190Z,100256.88
2019-02-09T21:14:59.613Z,100255.09
2019-02-09T21:17:33.772Z,100249.97
2019-02-09T21:54:33.670Z,100254.75
2019-02-09T21:57:07.048Z,100259.30
2019-02-09T21:59:39.944Z,100251.03
2019-02-09T22:02:14.030Z,100257.13
2019-02-09T23:38:52.089Z,100268.28
2019-02-09T23:41:26.535Z,100269.31
2019-02-09T23:44:00.061Z,100261.45
2019-02-09T23:57:14.899Z,100246.60
